createdAt,value
2023-02-27T00:01:37.052Z,2.10
2023-02-27T00:04:06.466Z,1.45
2023-02-27T00:06:37.183Z,1.45
2023-02-27T00:09:06.997Z,1.70
2023-02-27T00:11:38.672Z,1.33
2023-02-27T00:14:08.483Z,1.42
2023-02-27T00:16:37.763Z,1.35
2023-02-27T00:19:07.182Z,1.20
2023-02-27T00:21:38.137Z,1.38
2023-02-27T00:24:08.851Z,2.22
2023-02-27T00:26:38.180Z,0.98
2023-02-27T00:29:08.190Z,1.77
2023-02-27T00:31:37.474Z,1.55
2023-02-27T00:34:06.933Z,1.73
2023-02-27T00:36:37.688Z,1.35
2023-02-27T00:39:07.191Z,1.23
2023-02-27T00:41:36.603Z,1.15
2023-02-27T00:44:06.172Z,1.08
2023-02-27T00:46:35.686Z,1.23
2023-02-27T00:50:34.088Z,1.17
2023-02-27T00:53:03.410Z,1.52
2023-02-27T00:55:32.686Z,1.73
2023-02-27T00:58:02.042Z,1.50
2023-02-27T01:00:31.771Z,2.05
2023-02-27T01:03:01.135Z,1.83
2023-02-27T01:05:30.491Z,1.60
2023-02-27T01:08:01.337Z,1.00
2023-02-27T01:10:30.656Z,1.35
2023-02-27T01:12:59.978Z,1.25
2023-02-27T01:15:29.281Z,1.15
2023-02-27T01:17:58.821Z,1.02
2023-02-27T01:20:28.237Z,1.55
2023-02-27T01:22:57.596Z,0.75
2023-02-27T01:25:28.393Z,1.98
2023-02-27T01:27:57.890Z,1.75
2023-02-27T01:30:27.202Z,1.20
2023-02-27T01:32:56.683Z,1.02
2023-02-27T01:35:26.029Z,0.85
2023-02-27T01:37:55.350Z,2.00
2023-02-27T01:40:24.834Z,1.25
2023-02-27T01:42:55.862Z,1.95
2023-02-27T01:45:39.553Z,1.27
2023-02-27T01:48:17.253Z,1.27
2023-02-27T01:50:52.415Z,1.30
2023-02-27T01:53:26.116Z,1.30
2023-02-27T01:55:58.166Z,0.90
2023-02-27T01:58:29.471Z,0.80
2023-02-27T02:00:59.713Z,0.80
2023-02-27T02:03:41.580Z,0.88
2023-02-27T02:06:11.720Z,1.15
2023-02-27T02:08:46.543Z,0.75
2023-02-27T02:11:19.799Z,2.47
2023-02-27T02:13:55.113Z,1.00
2023-02-27T02:16:45.969Z,1.02
2023-02-27T02:19:57.099Z,2.03
2023-02-27T02:23:19.630Z,1.10
2023-02-27T02:26:19.891Z,0.68
2023-02-27T02:29:44.431Z,1.25
2023-02-27T02:33:12.187Z,0.52
2023-02-27T02:36:47.354Z,0.77
2023-02-27T02:40:07.766Z,0.90
2023-02-27T02:42:44.288Z,0.63
2023-02-27T02:45:22.079Z,0.50
2023-02-27T02:48:06.057Z,0.52
2023-02-27T02:50:43.137Z,0.77
2023-02-27T02:53:37.001Z,1.05
2023-02-27T02:56:14.835Z,0.50
2023-02-27T02:58:53.411Z,1.00
2023-02-27T03:01:28.325Z,0.85
2023-02-27T03:04:04.289Z,0.75
2023-02-27T03:06:37.766Z,0.63
2023-02-27T03:09:13.942Z,1.00
2023-02-27T03:11:49.372Z,0.50
2023-02-27T03:14:30.912Z,0.40
2023-02-27T03:17:06.037Z,0.73
2023-02-27T03:19:42.857Z,1.40
2023-02-27T03:22:17.057Z,5.63
2023-02-27T03:24:50.217Z,3.38
2023-02-27T03:27:22.246Z,1.30
2023-02-27T03:29:57.418Z,1.77
2023-02-27T03:32:34.000Z,1.02
2023-02-27T03:35:04.533Z,1.20
2023-02-27T03:38:00.676Z,0.98
2023-02-27T03:40:36.867Z,1.10
2023-02-27T03:43:20.514Z,1.05
2023-02-27T03:46:00.971Z,5.10
2023-02-27T03:51:34.762Z,11.15
2023-02-27T03:54:10.898Z,4.47
2023-02-27T03:56:46.112Z,2.53
2023-02-27T03:59:16.450Z,2.67
2023-02-27T04:01:47.152Z,3.08
2023-02-27T04:04:19.168Z,1.55
2023-02-27T04:07:14.461Z,1.47
2023-02-27T04:10:18.994Z,1.55
2023-02-27T04:13:19.333Z,1.52
2023-02-27T04:16:15.914Z,0.85
2023-02-27T04:19:05.693Z,1.20
2023-02-27T04:21:43.876Z,1.13
2023-02-27T04:24:32.429Z,3.03
2023-02-27T04:27:10.228Z,1.98
2023-02-27T04:29:50.171Z,2.00
2023-02-27T04:32:27.530Z,2.60
2023-02-27T04:35:01.609Z,7.55
2023-02-27T04:37:36.610Z,2.58
2023-02-27T04:40:13.709Z,1.77
2023-02-27T04:42:48.336Z,1.35
2023-02-27T04:45:21.428Z,2.30
2023-02-27T04:47:57.016Z,3.08
2023-02-27T04:50:31.360Z,2.45
2023-02-27T04:53:09.065Z,2.67
2023-02-27T04:55:46.903Z,3.58
2023-02-27T04:58:24.450Z,3.22
2023-02-27T05:01:01.154Z,2.03
2023-02-27T05:03:37.371Z,3.47
2023-02-27T05:06:07.368Z,2.00
2023-02-27T05:08:43.311Z,1.02
2023-02-27T05:11:22.636Z,1.08
2023-02-27T05:13:56.416Z,0.80
2023-02-27T05:16:33.323Z,1.08
2023-02-27T05:19:04.733Z,1.23
2023-02-27T05:21:40.548Z,1.08
2023-02-27T05:24:20.139Z,0.80
2023-02-27T05:27:12.234Z,0.22
2023-02-27T05:29:50.096Z,0.10
2023-02-27T05:32:32.280Z,0.60
2023-02-27T05:35:14.398Z,0.10
2023-02-27T05:37:49.849Z,0.10
2023-02-27T05:40:25.697Z,0.10
2023-02-27T05:43:03.712Z,0.10
2023-02-27T05:45:36.009Z,0.10
2023-02-27T05:48:10.466Z,0.10
2023-02-27T05:50:41.727Z,0.10
2023-02-27T05:53:17.872Z,0.05
2023-02-27T05:55:51.799Z,0.05
2023-02-27T05:58:27.900Z,0.00
2023-02-27T06:01:01.567Z,0.00
2023-02-27T06:03:34.920Z,0.08
2023-02-27T06:06:07.861Z,0.05
2023-02-27T06:08:38.229Z,0.00
2023-02-27T06:11:08.354Z,0.00
2023-02-27T06:13:41.729Z,0.00
2023-02-27T06:16:14.210Z,0.00
2023-02-27T06:18:43.619Z,0.20
2023-02-27T06:21:16.860Z,0.10
2023-02-27T06:23:46.236Z,0.30
2023-02-27T06:26:15.958Z,0.25
2023-02-27T06:28:46.788Z,1.30
2023-02-27T06:31:16.436Z,0.63
2023-02-27T06:33:49.108Z,1.77
2023-02-27T06:36:18.650Z,1.20
2023-02-27T06:38:47.959Z,1.35
2023-02-27T06:41:17.432Z,2.17
2023-02-27T06:43:48.334Z,1.27
2023-02-27T06:46:17.711Z,1.52
2023-02-27T06:51:33.966Z,1.60
2023-02-27T06:54:03.615Z,1.02
2023-02-27T06:56:33.029Z,0.30
2023-02-27T06:59:02.347Z,0.15
2023-02-27T07:01:31.714Z,0.25
2023-02-27T07:04:01.760Z,0.10
2023-02-27T07:07:36.133Z,0.30
2023-02-27T07:09:23.324Z,0.10
2023-02-27T07:11:53.705Z,0.32
2023-02-27T07:14:23.582Z,0.10
2023-02-27T07:16:55.320Z,0.30
2023-02-27T07:19:26.202Z,0.10
2023-02-27T07:21:56.916Z,0.40
2023-02-27T07:24:26.448Z,0.30
2023-02-27T07:26:55.978Z,0.00
2023-02-27T07:29:25.267Z,0.00
2023-02-27T07:31:54.657Z,0.30
2023-02-27T07:34:23.923Z,0.10
2023-02-27T07:36:53.341Z,0.00
2023-02-27T07:39:24.187Z,0.03
2023-02-27T07:41:53.633Z,0.17
2023-02-27T07:44:23.097Z,0.00
2023-02-27T07:46:52.652Z,0.00
2023-02-27T07:49:22.042Z,0.00
2023-02-27T07:51:51.669Z,0.00
2023-02-27T07:54:22.688Z,0.00
2023-02-27T07:56:52.182Z,0.00
2023-02-27T07:59:21.663Z,0.00
2023-02-27T08:01:51.105Z,0.00
2023-02-27T08:04:20.405Z,0.00
2023-02-27T08:06:49.854Z,0.00
2023-02-27T08:09:19.492Z,0.00
2023-02-27T08:11:50.170Z,0.00
2023-02-27T08:14:19.584Z,0.00
2023-02-27T08:16:48.857Z,0.13
2023-02-27T08:19:18.465Z,0.00
2023-02-27T08:21:47.839Z,0.00
2023-02-27T08:24:17.290Z,0.00
2023-02-27T08:26:46.671Z,0.00
2023-02-27T08:29:17.603Z,0.00
2023-02-27T08:31:48.617Z,0.00
2023-02-27T08:34:18.196Z,0.10
2023-02-27T08:37:06.570Z,0.00
2023-02-27T08:39:35.856Z,0.10
2023-02-27T08:42:05.355Z,0.10
2023-02-27T08:44:36.470Z,0.03
2023-02-27T08:47:06.369Z,0.25
2023-02-27T08:49:36.031Z,0.10
2023-02-27T08:52:05.886Z,0.00
2023-02-27T08:54:35.419Z,0.00
2023-02-27T08:57:05.289Z,0.10
2023-02-27T08:59:36.245Z,0.00
2023-02-27T09:02:06.555Z,0.20
2023-02-27T09:04:36.375Z,0.00
2023-02-27T09:07:06.104Z,0.00
2023-02-27T09:09:35.521Z,0.13
2023-02-27T09:12:04.911Z,0.00
2023-02-27T09:14:35.749Z,0.00
2023-02-27T09:17:05.283Z,0.17
2023-02-27T09:19:34.734Z,0.00
2023-02-27T09:22:04.215Z,0.00
2023-02-27T09:24:33.651Z,0.00
2023-02-27T09:27:03.229Z,0.00
2023-02-27T09:29:32.628Z,0.00
2023-02-27T09:32:03.555Z,0.00
2023-02-27T09:34:33.077Z,0.15
2023-02-27T09:37:02.713Z,0.00
2023-02-27T09:39:32.596Z,0.10
2023-02-27T09:42:06.661Z,0.00
2023-02-27T09:44:47.395Z,0.10
2023-02-27T09:47:27.180Z,0.00
2023-02-27T09:51:33.809Z,0.05
2023-02-27T09:54:04.267Z,0.05
2023-02-27T09:56:37.375Z,0.57
2023-02-27T09:59:15.369Z,0.10
2023-02-27T10:01:52.068Z,0.10
2023-02-27T10:04:41.080Z,0.30
2023-02-27T10:07:19.671Z,0.10
2023-02-27T10:10:06.067Z,0.77
2023-02-27T10:12:48.197Z,0.10
2023-02-27T10:15:26.016Z,0.10
2023-02-27T10:18:10.499Z,0.32
2023-02-27T10:20:56.322Z,0.40
2023-02-27T10:23:43.298Z,0.38
2023-02-27T10:26:20.768Z,0.63
2023-02-27T10:28:50.616Z,0.30
2023-02-27T10:31:26.417Z,0.55
2023-02-27T10:33:58.247Z,0.52
2023-02-27T10:36:34.128Z,0.40
2023-02-27T10:39:09.315Z,0.68
2023-02-27T10:41:40.361Z,0.70
2023-02-27T10:44:11.223Z,0.55
2023-02-27T10:46:42.521Z,0.32
2023-02-27T10:49:19.405Z,0.22
2023-02-27T10:51:49.869Z,0.35
2023-02-27T10:54:24.855Z,0.43
2023-02-27T10:56:58.136Z,0.45
2023-02-27T10:59:30.452Z,0.73
2023-02-27T11:02:03.566Z,0.22
2023-02-27T11:04:36.885Z,0.30
2023-02-27T11:07:16.124Z,0.30
2023-02-27T11:10:03.587Z,1.55
2023-02-27T11:12:35.699Z,0.20
2023-02-27T11:15:25.818Z,0.47
2023-02-27T11:17:55.346Z,0.75
2023-02-27T11:20:40.029Z,0.75
2023-02-27T11:23:18.538Z,0.50
2023-02-27T11:25:49.757Z,0.85
2023-02-27T11:28:28.497Z,0.82
2023-02-27T11:31:03.807Z,0.47
2023-02-27T11:33:42.912Z,0.40
2023-02-27T11:36:12.452Z,0.50
2023-02-27T11:38:41.893Z,0.63
2023-02-27T11:41:12.815Z,1.25
2023-02-27T11:43:51.345Z,1.00
2023-02-27T11:46:47.267Z,0.80
2023-02-27T11:49:33.997Z,1.17
2023-02-27T11:52:12.755Z,0.82
2023-02-27T11:54:46.588Z,0.45
2023-02-27T11:57:27.021Z,0.95
2023-02-27T12:00:03.729Z,1.10
2023-02-27T12:02:47.638Z,0.75
2023-02-27T12:05:21.088Z,1.30
2023-02-27T12:07:57.176Z,0.73
2023-02-27T12:10:30.909Z,0.50
2023-02-27T12:13:06.604Z,0.68
2023-02-27T12:15:46.567Z,1.92
2023-02-27T12:18:24.555Z,0.70
2023-02-27T12:21:00.800Z,0.85
2023-02-27T12:23:40.636Z,0.65
2023-02-27T12:26:19.132Z,0.90
2023-02-27T12:28:59.490Z,0.75
2023-02-27T12:31:49.060Z,1.33
2023-02-27T12:34:28.637Z,1.10
2023-02-27T12:37:05.506Z,0.40
2023-02-27T12:39:36.349Z,0.85
2023-02-27T12:42:45.405Z,0.65
2023-02-27T12:45:43.975Z,0.50
2023-02-27T12:51:48.070Z,0.93
2023-02-27T12:54:38.298Z,0.90
2023-02-27T12:57:30.067Z,0.57
2023-02-27T13:00:15.151Z,1.70
2023-02-27T13:02:58.808Z,0.50
2023-02-27T13:05:43.545Z,1.20
2023-02-27T13:08:45.579Z,0.85
2023-02-27T13:11:28.067Z,1.20
2023-02-27T13:14:02.433Z,1.13
2023-02-27T13:16:36.824Z,0.60
2023-02-27T13:19:14.136Z,0.95
2023-02-27T13:21:51.771Z,1.42
2023-02-27T13:24:28.380Z,1.13
2023-02-27T13:27:03.912Z,0.80
2023-02-27T13:29:47.790Z,0.50
2023-02-27T13:32:43.054Z,0.80
2023-02-27T13:35:28.877Z,1.70
2023-02-27T13:38:02.521Z,1.10
2023-02-27T13:40:42.468Z,1.15
2023-02-27T13:43:51.313Z,0.70
2023-02-27T13:46:25.846Z,1.15
2023-02-27T13:48:55.706Z,1.40
2023-02-27T13:51:49.231Z,1.63
2023-02-27T13:54:29.292Z,1.50
2023-02-27T13:57:25.012Z,1.35
2023-02-27T14:00:10.012Z,1.15
2023-02-27T14:02:59.995Z,1.17
2023-02-27T14:05:37.081Z,1.58
2023-02-27T14:08:16.891Z,1.70
2023-02-27T14:11:00.097Z,1.48
2023-02-27T14:14:02.179Z,1.50
2023-02-27T14:16:58.970Z,1.33
2023-02-27T14:19:57.273Z,1.40
2023-02-27T14:23:19.029Z,2.53
2023-02-27T14:25:52.639Z,1.77
2023-02-27T14:28:31.702Z,1.55
2023-02-27T14:31:06.115Z,1.25
2023-02-27T14:33:45.625Z,1.63
2023-02-27T14:36:21.689Z,2.85
2023-02-27T14:38:52.003Z,1.75
2023-02-27T14:41:39.676Z,2.00
2023-02-27T14:44:22.493Z,1.98
2023-02-27T14:46:55.660Z,2.08
2023-02-27T14:49:31.495Z,1.00
2023-02-27T14:52:14.903Z,2.22
2023-02-27T14:54:45.357Z,1.88
2023-02-27T14:57:20.256Z,2.33
2023-02-27T14:59:51.379Z,2.10
2023-02-27T15:02:28.615Z,2.33
2023-02-27T15:05:18.202Z,2.30
2023-02-27T15:07:50.435Z,2.33
2023-02-27T15:10:26.035Z,2.50
2023-02-27T15:12:55.550Z,2.05
2023-02-27T15:15:25.081Z,2.40
2023-02-27T15:17:57.172Z,2.95
2023-02-27T15:20:31.220Z,4.22
2023-02-27T15:23:01.824Z,2.58
2023-02-27T15:25:33.957Z,1.90
2023-02-27T15:28:06.708Z,1.63
2023-02-27T15:30:36.492Z,2.67
2023-02-27T15:33:15.437Z,2.08
2023-02-27T15:35:47.170Z,1.83
2023-02-27T15:38:28.104Z,2.45
2023-02-27T15:40:59.337Z,2.30
2023-02-27T15:43:30.852Z,1.70
2023-02-27T15:46:01.018Z,2.70
2023-02-27T15:51:33.706Z,3.05
2023-02-27T15:54:05.415Z,2.20
2023-02-27T15:56:38.094Z,2.30
2023-02-27T15:59:08.048Z,2.38
2023-02-27T16:01:38.544Z,2.13
2023-02-27T16:04:20.647Z,3.10
2023-02-27T16:07:00.943Z,3.13
2023-02-27T16:09:33.566Z,5.88
2023-02-27T16:12:29.209Z,4.30
2023-02-27T16:15:26.277Z,6.75
2023-02-27T16:18:03.168Z,3.55
2023-02-27T16:20:42.901Z,4.45
2023-02-27T16:23:25.224Z,4.40
2023-02-27T16:26:28.533Z,3.90
2023-02-27T16:29:00.990Z,2.80
2023-02-27T16:31:33.286Z,1.77
2023-02-27T16:34:14.629Z,1.75
2023-02-27T16:36:53.007Z,3.35
2023-02-27T16:39:24.399Z,6.50
2023-02-27T16:41:55.469Z,5.22
2023-02-27T16:44:25.290Z,2.83
2023-02-27T16:46:56.296Z,2.75
2023-02-27T16:49:28.724Z,3.22
2023-02-27T16:52:02.941Z,2.17
2023-02-27T16:54:33.884Z,2.88
2023-02-27T16:57:03.396Z,3.08
2023-02-27T16:59:35.095Z,2.38
2023-02-27T17:02:08.173Z,2.40
2023-02-27T17:04:37.603Z,2.00
2023-02-27T17:07:07.370Z,2.63
2023-02-27T17:09:38.088Z,2.58
2023-02-27T17:12:07.782Z,2.42
2023-02-27T17:14:37.946Z,3.08
2023-02-27T17:17:08.012Z,2.67
2023-02-27T17:19:37.471Z,3.00
2023-02-27T17:22:06.810Z,4.55
2023-02-27T17:24:39.067Z,2.38
2023-02-27T17:27:08.849Z,2.72
2023-02-27T17:29:40.213Z,4.60
2023-02-27T17:32:09.534Z,4.38
2023-02-27T17:34:39.036Z,3.35
2023-02-27T17:37:08.605Z,5.45
2023-02-27T17:39:41.415Z,3.03
2023-02-27T17:42:12.932Z,2.15
2023-02-27T17:44:44.864Z,3.88
2023-02-27T17:47:14.729Z,6.32
2023-02-27T17:49:44.214Z,10.45
2023-02-27T17:52:13.911Z,5.55
2023-02-27T17:54:44.918Z,3.22
2023-02-27T17:57:14.271Z,2.33
2023-02-27T17:59:44.597Z,2.20
2023-02-27T18:02:15.334Z,2.88
2023-02-27T18:04:44.755Z,2.40
2023-02-27T18:07:14.267Z,2.25
2023-02-27T18:09:46.806Z,3.38
2023-02-27T18:14:45.115Z,3.83
2023-02-27T18:17:14.393Z,4.43
2023-02-27T18:19:45.322Z,3.10
2023-02-27T18:22:16.508Z,3.17
2023-02-27T18:24:47.232Z,2.05
2023-02-27T18:27:16.534Z,2.30
2023-02-27T18:29:45.845Z,4.45
2023-02-27T18:32:15.326Z,3.08
2023-02-27T18:34:44.847Z,3.97
2023-02-27T18:37:14.193Z,2.78
2023-02-27T18:39:43.532Z,2.45
2023-02-27T18:42:14.320Z,2.45
2023-02-27T18:44:43.728Z,3.05
2023-02-27T18:47:13.296Z,2.67
2023-02-27T18:51:33.613Z,2.67
2023-02-27T18:54:05.293Z,2.22
2023-02-27T18:56:34.642Z,3.33
2023-02-27T18:59:05.510Z,2.20
2023-02-27T19:01:39.226Z,2.53
2023-02-27T19:04:11.635Z,3.78
2023-02-27T19:06:44.236Z,2.95
2023-02-27T19:11:48.232Z,1.83
2023-02-27T19:14:18.619Z,2.43
2023-02-27T19:16:50.044Z,2.70
2023-02-27T19:19:20.458Z,2.38
2023-02-27T19:21:51.228Z,3.50
2023-02-27T19:24:20.621Z,2.20
2023-02-27T19:26:51.133Z,3.08
2023-02-27T19:29:21.948Z,2.90
2023-02-27T19:31:51.974Z,2.13
2023-02-27T19:34:21.346Z,2.67
2023-02-27T19:36:52.240Z,2.88
2023-02-27T19:39:22.596Z,2.35
2023-02-27T19:41:51.982Z,3.00
2023-02-27T19:44:21.736Z,3.28
2023-02-27T19:46:52.219Z,3.28
2023-02-27T19:49:22.035Z,2.47
2023-02-27T19:51:52.841Z,2.70
2023-02-27T19:54:22.254Z,3.25
2023-02-27T19:56:52.933Z,4.47
2023-02-27T19:59:24.869Z,5.45
2023-02-27T20:01:54.931Z,5.68
2023-02-27T20:04:24.618Z,5.10
2023-02-27T20:06:55.722Z,3.97
2023-02-27T20:09:27.082Z,5.13
2023-02-27T20:12:00.457Z,10.20
2023-02-27T20:14:30.656Z,8.93
2023-02-27T20:17:00.297Z,7.80
2023-02-27T20:19:30.141Z,5.30
2023-02-27T20:22:00.917Z,7.97
2023-02-27T20:24:30.438Z,5.88
2023-02-27T20:27:00.316Z,4.00
2023-02-27T20:29:30.335Z,3.97
2023-02-27T20:32:00.491Z,3.80
2023-02-27T20:34:30.096Z,4.45
2023-02-27T20:37:01.262Z,5.30
2023-02-27T20:39:31.014Z,5.22
2023-02-27T20:42:00.934Z,5.20
2023-02-27T20:44:30.695Z,4.40
2023-02-27T20:47:00.051Z,5.18
2023-02-27T20:49:29.530Z,5.20
2023-02-27T20:52:00.324Z,4.10
2023-02-27T20:54:29.814Z,6.78
2023-02-27T20:56:59.286Z,6.35
2023-02-27T20:59:28.881Z,6.18
2023-02-27T21:01:59.801Z,7.10
2023-02-27T21:04:42.616Z,6.65
2023-02-27T21:09:44.877Z,7.37
2023-02-27T21:12:14.840Z,7.97
2023-02-27T21:14:45.472Z,6.28
2023-02-27T21:17:15.495Z,6.93
2023-02-27T21:19:44.836Z,5.75
2023-02-27T21:22:17.109Z,5.88
2023-02-27T21:24:46.950Z,7.75
2023-02-27T21:27:19.888Z,7.80
2023-02-27T21:29:50.080Z,6.93
2023-02-27T21:32:22.566Z,6.07
2023-02-27T21:34:51.937Z,7.55
2023-02-27T21:37:22.766Z,7.15
2023-02-27T21:39:55.489Z,7.65
2023-02-27T21:44:53.976Z,6.93
2023-02-27T21:47:23.355Z,7.70
2023-02-27T21:51:40.403Z,7.28
2023-02-27T21:54:13.722Z,7.40
2023-02-27T21:56:44.820Z,7.30
2023-02-27T21:59:15.028Z,8.25
2023-02-27T22:01:48.502Z,8.88
2023-02-27T22:04:19.265Z,8.82
2023-02-27T22:06:51.637Z,8.30
2023-02-27T22:09:21.433Z,9.65
2023-02-27T22:11:51.366Z,10.45
2023-02-27T22:14:20.778Z,8.20
2023-02-27T22:16:50.297Z,10.40
2023-02-27T22:19:22.215Z,8.52
2023-02-27T22:21:52.959Z,8.27
2023-02-27T22:24:22.478Z,8.23
2023-02-27T22:26:51.982Z,8.82
2023-02-27T22:29:21.401Z,7.97
2023-02-27T22:31:51.153Z,7.85
2023-02-27T22:34:20.882Z,6.70
2023-02-27T22:36:53.351Z,7.15
2023-02-27T22:39:23.307Z,6.63
2023-02-27T22:41:56.500Z,6.75
2023-02-27T22:44:26.296Z,7.38
2023-02-27T22:46:57.994Z,8.90
2023-02-27T22:49:27.418Z,8.20
2023-02-27T22:51:58.187Z,8.00
2023-02-27T22:54:27.581Z,7.40
2023-02-27T22:56:58.158Z,6.85
2023-02-27T22:59:28.147Z,6.95
2023-02-27T23:01:57.676Z,6.95
2023-02-27T23:04:27.236Z,6.30
2023-02-27T23:06:58.587Z,6.82
2023-02-27T23:09:28.424Z,7.90
2023-02-27T23:11:59.052Z,5.53
2023-02-27T23:14:28.429Z,6.63
2023-02-27T23:16:57.854Z,6.85
2023-02-27T23:19:27.173Z,6.78
2023-02-27T23:21:58.077Z,6.63
2023-02-27T23:24:27.606Z,6.70
2023-02-27T23:26:57.025Z,7.82
2023-02-27T23:29:26.398Z,7.45
2023-02-27T23:31:55.821Z,6.38
2023-02-27T23:34:25.192Z,7.15
2023-02-27T23:36:54.781Z,7.68
2023-02-27T23:39:25.638Z,8.98
2023-02-27T23:41:57.981Z,7.22
2023-02-27T23:44:28.267Z,7.40
2023-02-27T23:46:57.703Z,6.93
2023-02-27T23:49:27.086Z,6.05
2023-02-27T23:51:56.713Z,7.20
2023-02-27T23:54:27.638Z,6.82
2023-02-27T23:56:57.189Z,8.45
2023-02-27T23:59:30.398Z,8.38
